Terminal Aerodrome Forecast
Issued by NWS Wichita, KS

Home | Current Version | Previous Version | Text Only | Print | Product List | Glossary On
Versions: 1 2 3 4 5 6 7 8 9 10 11 12 13 14
000
FTUS43 KICT 050520
TAFICT
TAF
KICT 050520Z 0506/0606 14009KT P6SM SCT025 SCT060 BKN200
     FM050800 12006KT P6SM VCTS SCT010 SCT050CB OVC100
     FM051000 12008KT P6SM SCT012 BKN025
      TEMPO 0510/0512 BKN012
     FM051700 12010KT P6SM BKN060=

USA.gov is the U.S. government's official web portal to all federal, state and local government web resources and services.